createdAt,value
2023-01-18T00:02:24.503Z,54.3
2023-01-18T00:05:11.820Z,51.5
2023-01-18T00:08:00.188Z,42.2
2023-01-18T00:10:47.461Z,56.4
2023-01-18T00:13:34.795Z,45.6
2023-01-18T00:16:22.881Z,41.1
2023-01-18T00:19:10.986Z,47.1
2023-01-18T00:21:58.686Z,49.2
2023-01-18T00:24:46.009Z,61.3
2023-01-18T00:27:33.234Z,58.2
2023-01-18T00:30:20.520Z,48.5
2023-01-18T00:33:10.718Z,55.3
2023-01-18T00:35:58.008Z,45.9
2023-01-18T00:38:47.229Z,40.6
2023-01-18T00:41:36.499Z,41.2
2023-01-18T00:46:23.236Z,50.5
2023-01-18T00:49:12.136Z,52.3
2023-01-18T00:52:00.339Z,62.7
2023-01-18T00:54:48.272Z,84
2023-01-18T00:57:35.713Z,89.3
2023-01-18T01:00:23.088Z,113.7
2023-01-18T01:03:11.405Z,92.4
2023-01-18T01:05:59.244Z,60.4
2023-01-18T01:09:32.815Z,60.2
2023-01-18T01:12:20.128Z,49.6
2023-01-18T01:15:39.243Z,48.2
2023-01-18T01:18:58.985Z,44.5
2023-01-18T01:22:17.899Z,49.4
2023-01-18T01:25:36.993Z,44.4
2023-01-18T01:28:56.655Z,44.5
2023-01-18T01:31:43.973Z,42.1
2023-01-18T01:34:31.244Z,38.5
2023-01-18T01:37:18.494Z,35
2023-01-18T01:40:05.888Z,39.6
2023-01-18T01:42:55.079Z,31.8
2023-01-18T01:45:42.812Z,29.9
2023-01-18T01:48:30.189Z,30
2023-01-18T01:51:17.519Z,27.9
2023-01-18T01:54:05.340Z,29
2023-01-18T01:57:00.276Z,23.2
2023-01-18T01:59:52.518Z,26.5
2023-01-18T02:02:44.973Z,22.3
2023-01-18T02:05:37.753Z,26.3
2023-01-18T02:08:29.034Z,25.2
2023-01-18T02:11:16.804Z,24.4
2023-01-18T02:14:03.980Z,24.4
2023-01-18T02:16:55.301Z,27.4
2023-01-18T02:19:53.706Z,20.7
2023-01-18T02:23:10.440Z,22.7
2023-01-18T02:26:15.977Z,23.5
2023-01-18T02:29:26.542Z,23.3
2023-01-18T02:32:40.460Z,25.7
2023-01-18T02:35:39.733Z,27.7
2023-01-18T02:38:34.312Z,29.5
2023-01-18T02:41:26.250Z,28.2
2023-01-18T02:49:15.352Z,26.7
2023-01-18T02:52:07.366Z,28.6
2023-01-18T02:55:24.621Z,29.8
2023-01-18T02:58:21.810Z,31.7
2023-01-18T03:01:15.862Z,29.8
2023-01-18T03:04:11.107Z,25.8
2023-01-18T03:07:03.725Z,28.2
2023-01-18T03:09:56.722Z,28.1
2023-01-18T03:12:48.294Z,30.5
2023-01-18T03:15:43.539Z,27.9
2023-01-18T03:18:36.470Z,27.8
2023-01-18T03:21:44.797Z,25.8
2023-01-18T03:24:37.789Z,30.4
2023-01-18T03:27:25.888Z,28.6
2023-01-18T03:30:46.186Z,32.1
2023-01-18T03:34:07.686Z,29
2023-01-18T03:37:02.792Z,27.8
2023-01-18T03:39:55.590Z,27.7
2023-01-18T03:42:48.632Z,30.8
2023-01-18T03:45:43.735Z,31.1
2023-01-18T03:48:33.742Z,24.9
2023-01-18T03:51:21.878Z,27.6
2023-01-18T03:54:17.557Z,26.8
2023-01-18T03:57:13.780Z,29.4
2023-01-18T04:00:09.133Z,31.2
2023-01-18T04:02:59.401Z,28.8
2023-01-18T04:05:47.141Z,28.8
2023-01-18T04:08:34.912Z,36.3
2023-01-18T04:11:22.202Z,34.7
2023-01-18T04:14:09.498Z,34.1
2023-01-18T04:16:56.736Z,26.8
2023-01-18T04:19:43.945Z,26.7
2023-01-18T04:22:31.463Z,27.1
2023-01-18T04:25:18.793Z,27.7
2023-01-18T04:28:06.776Z,39.7
2023-01-18T04:30:54.294Z,28
2023-01-18T04:33:42.407Z,29.1
2023-01-18T04:36:30.276Z,33.4
2023-01-18T04:39:17.730Z,31.6
2023-01-18T04:42:05.472Z,36
2023-01-18T04:44:52.791Z,31.7
2023-01-18T04:47:40.085Z,34.7
2023-01-18T04:50:28.020Z,35.3
2023-01-18T04:53:15.470Z,38.2
2023-01-18T04:56:03.404Z,30.6
2023-01-18T04:58:50.972Z,33.2
2023-01-18T05:01:39.179Z,28.4
2023-01-18T05:04:26.580Z,29.1
2023-01-18T05:07:15.217Z,27.8
2023-01-18T05:10:02.833Z,27.5
2023-01-18T05:12:52.032Z,31.2
2023-01-18T05:15:39.471Z,30.1
2023-01-18T05:18:27.120Z,30.2
2023-01-18T05:21:14.980Z,29.1
2023-01-18T05:24:02.624Z,31.9
2023-01-18T05:26:50.275Z,29
2023-01-18T05:29:37.552Z,30.7
2023-01-18T05:32:24.861Z,28.9
2023-01-18T05:35:12.496Z,32.9
2023-01-18T05:38:00.927Z,34.3
2023-01-18T05:40:48.241Z,31.7
2023-01-18T05:43:37.994Z,30.4
2023-01-18T05:46:25.837Z,28.3
2023-01-18T05:49:13.229Z,33.1
2023-01-18T05:52:01.428Z,33.1
2023-01-18T05:54:49.057Z,26.9
2023-01-18T05:57:36.562Z,31.1
2023-01-18T06:00:23.854Z,27.8
2023-01-18T06:03:12.355Z,29.4
2023-01-18T06:06:00.652Z,26.8
2023-01-18T06:08:48.504Z,30.5
2023-01-18T06:11:35.714Z,35.5
2023-01-18T06:14:23.074Z,25
2023-01-18T06:17:10.424Z,26.4
2023-01-18T06:19:57.919Z,25.4
2023-01-18T06:22:45.169Z,29.2
2023-01-18T06:25:32.724Z,32.2
2023-01-18T06:28:20.681Z,28.7
2023-01-18T06:31:08.244Z,28.7
2023-01-18T06:33:56.171Z,27.5
2023-01-18T06:36:43.490Z,30.1
2023-01-18T06:39:30.967Z,25.4
2023-01-18T06:42:18.234Z,31.4
2023-01-18T06:45:05.472Z,26.4
2023-01-18T06:47:54.243Z,23.3
2023-01-18T06:50:41.752Z,28.1
2023-01-18T06:53:29.007Z,29.9
2023-01-18T06:56:16.220Z,27.7
2023-01-18T06:59:03.499Z,28.1
2023-01-18T07:01:51.144Z,23.4
2023-01-18T07:04:39.111Z,24
2023-01-18T07:07:28.728Z,27
2023-01-18T07:10:16.992Z,24.4
2023-01-18T07:13:04.346Z,28.7
2023-01-18T07:15:51.666Z,36.6
2023-01-18T07:18:41.766Z,26.9
2023-01-18T07:21:30.158Z,40.9
2023-01-18T07:24:17.818Z,28.4
2023-01-18T07:27:05.765Z,41.3
2023-01-18T07:29:52.992Z,46.6
2023-01-18T07:32:40.641Z,46.7
2023-01-18T07:35:33.418Z,42.4
2023-01-18T07:38:20.724Z,31.4
2023-01-18T07:41:09.035Z,30.3
2023-01-18T07:43:59.236Z,30.9
2023-01-18T07:46:46.596Z,22.7
2023-01-18T07:49:33.807Z,28.7
2023-01-18T07:52:21.121Z,25.9
2023-01-18T07:55:08.475Z,30.7
2023-01-18T07:57:56.168Z,32.8
2023-01-18T08:00:43.765Z,30.7
2023-01-18T08:03:32.079Z,24.3
2023-01-18T08:06:20.966Z,27.2
2023-01-18T08:09:10.668Z,25.8
2023-01-18T08:11:58.164Z,31.7
2023-01-18T08:14:46.124Z,24.1
2023-01-18T08:17:33.468Z,27
2023-01-18T08:20:21.065Z,25.7
2023-01-18T08:23:08.531Z,30.6
2023-01-18T08:25:55.838Z,31.8
2023-01-18T08:28:46.998Z,28.3
2023-01-18T08:31:34.220Z,26.5
2023-01-18T08:34:21.565Z,30.4
2023-01-18T08:37:08.970Z,25.7
2023-01-18T08:39:56.359Z,25.2
2023-01-18T08:42:43.622Z,27.8
2023-01-18T08:45:31.448Z,21.9
2023-01-18T08:48:19.600Z,22.7
2023-01-18T08:51:06.961Z,25.8
2023-01-18T08:53:54.617Z,27.9
2023-01-18T08:56:43.247Z,25.8
2023-01-18T08:59:30.632Z,28
2023-01-18T09:02:17.985Z,24.5
2023-01-18T09:05:05.527Z,25.6
2023-01-18T09:07:54.110Z,27.1
2023-01-18T09:10:42.383Z,21.7
2023-01-18T09:13:29.896Z,28
2023-01-18T09:16:17.585Z,25
2023-01-18T09:19:04.888Z,27.8
2023-01-18T09:21:52.551Z,23.8
2023-01-18T09:24:39.740Z,23.2
2023-01-18T09:27:27.862Z,22.8
2023-01-18T09:30:15.413Z,25.8
2023-01-18T09:33:03.136Z,27.5
2023-01-18T09:35:50.711Z,23.1
2023-01-18T09:38:40.151Z,24.2
2023-01-18T09:41:30.969Z,23.6
2023-01-18T09:44:22.234Z,25.5
2023-01-18T09:47:15.493Z,21.3
2023-01-18T09:50:08.333Z,23.3
2023-01-18T09:53:01.760Z,21.3
2023-01-18T09:56:01.657Z,21.2
2023-01-18T09:58:56.169Z,19.7
2023-01-18T10:01:56.480Z,18.7
2023-01-18T10:04:47.835Z,20.3
2023-01-18T10:07:39.596Z,21.3
2023-01-18T10:10:33.669Z,20.6
2023-01-18T10:13:24.218Z,18.3
2023-01-18T10:16:24.073Z,19.1
2023-01-18T10:19:11.474Z,18.4
2023-01-18T10:22:04.996Z,18.5
2023-01-18T10:25:01.306Z,20.2
2023-01-18T10:27:59.316Z,21.6
2023-01-18T10:31:08.582Z,23.8
2023-01-18T10:34:11.492Z,20.5
2023-01-18T10:37:03.456Z,21.7
2023-01-18T10:40:01.307Z,21.2
2023-01-18T10:42:54.671Z,23
2023-01-18T10:45:45.766Z,28.2
2023-01-18T10:48:33.143Z,24.5
2023-01-18T10:51:20.882Z,20.7
2023-01-18T10:54:14.874Z,25.6
2023-01-18T10:57:10.135Z,26
2023-01-18T11:00:06.998Z,33
2023-01-18T11:03:05.969Z,41.8
2023-01-18T11:06:00.238Z,37.8
2023-01-18T11:08:50.979Z,37
2023-01-18T11:11:38.915Z,41.9
2023-01-18T11:14:58.239Z,37.3
2023-01-18T11:18:11.425Z,39.1
2023-01-18T11:20:58.790Z,33.2
2023-01-18T11:23:46.857Z,33.1
2023-01-18T11:26:35.982Z,37.8
2023-01-18T11:29:36.936Z,32.4
2023-01-18T11:32:29.049Z,31.1
2023-01-18T11:35:18.140Z,39.9
2023-01-18T11:38:18.031Z,34
2023-01-18T11:41:06.533Z,32.2
2023-01-18T11:44:01.147Z,29.1
2023-01-18T11:46:57.462Z,30.1
2023-01-18T11:49:48.523Z,37.1
2023-01-18T11:52:44.472Z,33.2
2023-01-18T11:55:36.835Z,29.7
2023-01-18T11:58:32.148Z,26.3
2023-01-18T12:01:21.282Z,25.6
2023-01-18T12:04:30.531Z,32.3
2023-01-18T12:07:33.052Z,30.8
2023-01-18T12:10:30.915Z,31.8
2023-01-18T12:13:26.994Z,35.6
2023-01-18T12:16:26.730Z,33
2023-01-18T12:19:31.190Z,31.5
2023-01-18T12:22:36.091Z,32.2
2023-01-18T12:25:42.437Z,28.7
2023-01-18T12:28:45.755Z,27.8
2023-01-18T12:31:45.851Z,31.3
2023-01-18T12:34:45.653Z,32.5
2023-01-18T12:37:46.993Z,29.8
2023-01-18T12:40:43.004Z,29.5
2023-01-18T12:43:45.658Z,30.1
2023-01-18T12:46:48.476Z,26.1
2023-01-18T12:49:49.490Z,37.2
2023-01-18T12:52:43.959Z,35.1
2023-01-18T12:55:36.338Z,31.4
2023-01-18T12:58:27.840Z,34.3
2023-01-18T13:01:16.327Z,33.3
2023-01-18T13:04:09.495Z,33.6
2023-01-18T13:07:04.406Z,31.2
2023-01-18T13:09:57.887Z,27.9
2023-01-18T13:12:45.771Z,30.5
2023-01-18T13:15:35.909Z,32.2
2023-01-18T13:18:30.397Z,33.6
2023-01-18T13:21:26.947Z,32.3
2023-01-18T13:24:29.633Z,29.6
2023-01-18T13:27:31.817Z,35.5
2023-01-18T13:30:19.550Z,31.3
2023-01-18T13:33:07.666Z,35.9
2023-01-18T13:35:58.977Z,33.6
2023-01-18T13:38:52.417Z,40.3
2023-01-18T13:41:43.232Z,37.6
2023-01-18T13:44:54.469Z,32.5
2023-01-18T13:48:03.344Z,27.6
2023-01-18T13:51:26.097Z,29.4
2023-01-18T13:54:46.768Z,29.9
2023-01-18T13:58:09.750Z,27.1
2023-01-18T14:01:04.036Z,30.2
2023-01-18T14:04:04.145Z,27.9
2023-01-18T14:07:06.500Z,26.4
2023-01-18T14:10:06.232Z,28.5
2023-01-18T14:13:10.040Z,31.3
2023-01-18T14:16:02.262Z,27.5
2023-01-18T14:18:50.974Z,28.1
2023-01-18T14:21:42.282Z,29.8
2023-01-18T14:24:50.403Z,28
2023-01-18T14:27:54.882Z,29.6
2023-01-18T14:30:49.737Z,29.8
2023-01-18T14:33:43.089Z,34.3
2023-01-18T14:36:30.624Z,29.3
2023-01-18T14:39:21.211Z,33.4
2023-01-18T14:42:08.891Z,32.3
2023-01-18T14:44:59.063Z,30.4
2023-01-18T14:47:47.988Z,31.4
2023-01-18T14:50:35.524Z,30.6
2023-01-18T14:53:25.881Z,30
2023-01-18T14:56:15.652Z,32.3
2023-01-18T14:59:06.316Z,36.6
2023-01-18T15:02:05.659Z,27.7
2023-01-18T15:05:01.552Z,28.2
2023-01-18T15:07:58.469Z,30.9
2023-01-18T15:10:45.873Z,31.6
2023-01-18T15:13:33.760Z,31.3
2023-01-18T15:16:32.086Z,29.7
2023-01-18T15:19:20.029Z,33
2023-01-18T15:22:13.221Z,30.2
2023-01-18T15:25:02.289Z,40.9
2023-01-18T15:28:01.976Z,32.4
2023-01-18T15:30:55.661Z,33.6
2023-01-18T15:33:43.275Z,35.6
2023-01-18T15:36:31.255Z,35.7
2023-01-18T15:39:19.299Z,35.7
2023-01-18T15:42:06.627Z,33.4
2023-01-18T15:44:55.750Z,30.5
2023-01-18T15:47:44.712Z,30.6
2023-01-18T15:50:35.301Z,34.7
2023-01-18T15:53:29.806Z,33.6
2023-01-18T15:56:20.282Z,36.3
2023-01-18T15:59:11.645Z,31.1
2023-01-18T16:02:06.919Z,33.9
2023-01-18T16:05:04.968Z,34.3
2023-01-18T16:08:15.427Z,42
2023-01-18T16:11:05.228Z,38.8
2023-01-18T16:14:12.030Z,39.1
2023-01-18T16:17:19.704Z,57.3
2023-01-18T16:20:08.998Z,52.6
2023-01-18T16:23:02.048Z,67.6
2023-01-18T16:25:53.741Z,56.3
2023-01-18T16:28:47.139Z,72
2023-01-18T16:31:36.302Z,100.6
2023-01-18T16:34:26.780Z,86.9
2023-01-18T16:37:14.388Z,79
2023-01-18T16:40:03.426Z,67.5
2023-01-18T16:42:53.419Z,55.7
2023-01-18T16:45:45.770Z,62.1
2023-01-18T16:48:35.748Z,53.7
2023-01-18T16:51:23.152Z,41.8
2023-01-18T16:54:13.226Z,43.3
2023-01-18T16:57:01.596Z,42.8
2023-01-18T16:59:49.260Z,44
2023-01-18T17:02:36.920Z,53.9
2023-01-18T17:05:24.482Z,50.3
2023-01-18T17:08:14.724Z,53.9
2023-01-18T17:11:02.586Z,44.8
2023-01-18T17:13:50.014Z,46.3
2023-01-18T17:16:37.306Z,45.2
2023-01-18T17:19:25.974Z,47.3
2023-01-18T17:22:13.607Z,40.7
2023-01-18T17:25:01.734Z,40.8
2023-01-18T17:27:49.375Z,43.1
2023-01-18T17:30:36.844Z,49.6
2023-01-18T17:33:25.053Z,44.3
2023-01-18T17:36:12.961Z,40.3
2023-01-18T17:39:00.979Z,43
2023-01-18T17:41:48.483Z,43.1
2023-01-18T17:44:37.367Z,43.4
2023-01-18T17:47:24.959Z,43.9
2023-01-18T17:50:12.345Z,42.6
2023-01-18T17:53:07.462Z,38.4
2023-01-18T17:55:55.501Z,46.2
2023-01-18T17:58:42.771Z,44.8
2023-01-18T18:01:31.494Z,45.5
2023-01-18T18:04:18.850Z,41
2023-01-18T18:07:06.131Z,43.3
2023-01-18T18:09:53.417Z,49.8
2023-01-18T18:12:45.276Z,48.1
2023-01-18T18:15:32.470Z,43.7
2023-01-18T18:18:23.286Z,40.2
2023-01-18T18:21:11.129Z,46
2023-01-18T18:23:58.500Z,49.7
2023-01-18T18:26:45.907Z,38.7
2023-01-18T18:29:33.212Z,50.3
2023-01-18T18:32:20.630Z,57.2
2023-01-18T18:35:23.109Z,49.2
2023-01-18T18:38:12.984Z,54.6
2023-01-18T18:41:03.302Z,56
2023-01-18T18:43:51.607Z,62.1
2023-01-18T18:46:39.168Z,55.3
2023-01-18T18:49:26.906Z,66.8
2023-01-18T18:52:14.575Z,66
2023-01-18T18:55:02.530Z,68.7
2023-01-18T18:57:50.740Z,76.3
2023-01-18T19:00:37.979Z,71.6
2023-01-18T19:03:25.272Z,64.9
2023-01-18T19:06:12.724Z,67.2
2023-01-18T19:09:00.896Z,63.5
2023-01-18T19:11:55.108Z,71.2
2023-01-18T19:14:43.111Z,63.2
2023-01-18T19:17:31.438Z,58.3
2023-01-18T19:20:18.990Z,61
2023-01-18T19:23:06.466Z,69.5
2023-01-18T19:25:54.246Z,65
2023-01-18T19:28:41.664Z,59.6
2023-01-18T19:31:29.123Z,64.3
2023-01-18T19:34:16.477Z,55.6
2023-01-18T19:37:05.729Z,65.8
2023-01-18T19:39:53.386Z,62.8
2023-01-18T19:42:40.552Z,57.3
2023-01-18T19:45:29.087Z,56.9
2023-01-18T19:48:17.270Z,59.3
2023-01-18T19:51:12.953Z,71.2
2023-01-18T19:54:07.742Z,66
2023-01-18T19:56:55.633Z,69.3
2023-01-18T19:59:42.902Z,68.8
2023-01-18T20:02:30.387Z,73.2
2023-01-18T20:05:17.931Z,84.3
2023-01-18T20:08:05.390Z,76.9
2023-01-18T20:10:53.498Z,68.2
2023-01-18T20:13:41.041Z,67.9
2023-01-18T20:16:33.822Z,68.2
2023-01-18T20:19:21.080Z,69.7
2023-01-18T20:22:08.444Z,61
2023-01-18T20:24:56.279Z,58.4
2023-01-18T20:27:43.706Z,64.7
2023-01-18T20:30:30.997Z,62.4
2023-01-18T20:33:18.364Z,63.1
2023-01-18T20:36:05.654Z,62.5
2023-01-18T20:38:54.031Z,60.6
2023-01-18T20:41:41.746Z,70.1
2023-01-18T20:44:29.871Z,62.8
2023-01-18T20:47:17.995Z,59
2023-01-18T20:50:05.719Z,52.9
2023-01-18T20:52:54.238Z,56.7
2023-01-18T20:55:41.622Z,45.8
2023-01-18T20:58:28.862Z,47.9
2023-01-18T21:01:16.865Z,48.5
2023-01-18T21:04:04.473Z,47.5
2023-01-18T21:06:52.175Z,56.4
2023-01-18T21:09:41.720Z,47.6
2023-01-18T21:12:30.095Z,49.3
2023-01-18T21:15:17.343Z,45.2
2023-01-18T21:18:05.255Z,52
2023-01-18T21:20:53.140Z,50.4
2023-01-18T21:23:42.185Z,51.3
2023-01-18T21:26:29.730Z,54.5
2023-01-18T21:29:16.994Z,50.3
2023-01-18T21:32:04.527Z,49.6
2023-01-18T21:34:51.793Z,53.7
2023-01-18T21:37:39.103Z,59.1
2023-01-18T21:40:27.105Z,59.6
2023-01-18T21:43:14.557Z,58.2
2023-01-18T21:46:36.509Z,64.9
2023-01-18T21:49:32.526Z,57.3
2023-01-18T21:52:54.756Z,50.7
2023-01-18T21:56:13.903Z,52.1
2023-01-18T21:59:01.903Z,51.9
2023-01-18T22:01:49.390Z,51.1
2023-01-18T22:04:37.500Z,49
2023-01-18T22:07:56.510Z,52.7
2023-01-18T22:10:43.861Z,49.1
2023-01-18T22:13:31.521Z,49.7
2023-01-18T22:16:18.801Z,58
2023-01-18T22:19:06.076Z,49.5
2023-01-18T22:21:55.241Z,52.1
2023-01-18T22:24:42.566Z,45.6
2023-01-18T22:27:30.061Z,49.4
2023-01-18T22:30:19.034Z,54.1
2023-01-18T22:33:06.533Z,47.3
2023-01-18T22:35:53.864Z,42.5
2023-01-18T22:38:42.889Z,47.2
2023-01-18T22:41:30.606Z,54.5
2023-01-18T22:44:18.026Z,52.3
2023-01-18T22:47:05.344Z,48.5
2023-01-18T22:49:52.838Z,58.1
2023-01-18T22:52:40.288Z,45.5
2023-01-18T22:55:27.684Z,52.2
2023-01-18T22:58:15.341Z,61.4
2023-01-18T23:01:03.760Z,49.2
2023-01-18T23:04:00.475Z,48
2023-01-18T23:06:49.357Z,43.2
2023-01-18T23:09:38.973Z,44.9
2023-01-18T23:12:26.240Z,45.8
2023-01-18T23:15:13.481Z,52.8
2023-01-18T23:18:33.269Z,43.6
2023-01-18T23:21:20.464Z,38.2
2023-01-18T23:24:07.845Z,40.7
2023-01-18T23:26:55.268Z,39.4
2023-01-18T23:29:43.276Z,33.3
2023-01-18T23:32:41.724Z,37
2023-01-18T23:35:29.025Z,51.1
2023-01-18T23:38:16.299Z,66.2
2023-01-18T23:41:03.595Z,55.6
2023-01-18T23:44:22.697Z,51.5
2023-01-18T23:47:41.739Z,142.6
2023-01-18T23:51:00.805Z,33.7
2023-01-18T23:54:20.485Z,32.4
2023-01-18T23:57:07.982Z,33.4
2023-01-18T23:59:55.332Z,32.2
